sensor_id;sensor_type;location;lat;lon;timestamp;temperature;humidity
25536;DHT22;13431;51.352;6.412;2022-07-06T00:00:30;10.60;99.90
25536;DHT22;13431;51.352;6.412;2022-07-06T00:02:58;10.50;99.90
25536;DHT22;13431;51.352;6.412;2022-07-06T00:05:26;10.50;99.90
25536;DHT22;13431;51.352;6.412;2022-07-06T00:07:53;10.40;99.90
25536;DHT22;13431;51.352;6.412;2022-07-06T00:10:20;10.40;99.90
25536;DHT22;13431;51.352;6.412;2022-07-06T00:12:48;10.40;99.90
25536;DHT22;13431;51.352;6.412;2022-07-06T00:15:15;10.30;99.90
25536;DHT22;13431;51.352;6.412;2022-07-06T00:17:42;10.30;99.90
25536;DHT22;13431;51.352;6.412;2022-07-06T00:20:10;10.20;99.90
25536;DHT22;13431;51.352;6.412;2022-07-06T00:22:37;10.20;99.90
25536;DHT22;13431;51.352;6.412;2022-07-06T00:25:05;10.10;99.90
25536;DHT22;13431;51.352;6.412;2022-07-06T00:27:33;10.20;99.90
25536;DHT22;13431;51.352;6.412;2022-07-06T00:30:00;10.20;99.90
25536;DHT22;13431;51.352;6.412;2022-07-06T00:32:28;10.20;99.90
25536;DHT22;13431;51.352;6.412;2022-07-06T00:34:56;10.10;99.90
25536;DHT22;13431;51.352;6.412;2022-07-06T00:37:23;10.10;99.90
25536;DHT22;13431;51.352;6.412;2022-07-06T00:39:50;10.20;99.90
25536;DHT22;13431;51.352;6.412;2022-07-06T00:42:18;10.10;99.90
25536;DHT22;13431;51.352;6.412;2022-07-06T00:44:45;9.90;99.90
25536;DHT22;13431;51.352;6.412;2022-07-06T00:47:12;9.90;99.90
25536;DHT22;13431;51.352;6.412;2022-07-06T00:49:40;9.80;99.90
25536;DHT22;13431;51.352;6.412;2022-07-06T00:52:26;9.80;99.90
25536;DHT22;13431;51.352;6.412;2022-07-06T00:54:54;9.80;99.90
25536;DHT22;13431;51.352;6.412;2022-07-06T00:57:21;9.80;99.90
25536;DHT22;13431;51.352;6.412;2022-07-06T00:59:49;9.80;99.90
25536;DHT22;13431;51.352;6.412;2022-07-06T01:02:17;9.80;99.90
25536;DHT22;13431;51.352;6.412;2022-07-06T01:04:45;9.80;99.90
25536;DHT22;13431;51.352;6.412;2022-07-06T01:07:13;9.70;99.90
25536;DHT22;13431;51.352;6.412;2022-07-06T01:09:40;9.70;99.90
25536;DHT22;13431;51.352;6.412;2022-07-06T01:12:08;9.80;99.90
25536;DHT22;13431;51.352;6.412;2022-07-06T01:14:36;9.70;99.90
25536;DHT22;13431;51.352;6.412;2022-07-06T01:17:04;9.60;99.90
25536;DHT22;13431;51.352;6.412;2022-07-06T01:19:32;9.60;99.90
25536;DHT22;13431;51.352;6.412;2022-07-06T01:22:00;9.60;99.90
25536;DHT22;13431;51.352;6.412;2022-07-06T01:24:28;9.50;99.90
25536;DHT22;13431;51.352;6.412;2022-07-06T01:26:55;9.50;99.90
25536;DHT22;13431;51.352;6.412;2022-07-06T01:29:23;9.50;99.90
25536;DHT22;13431;51.352;6.412;2022-07-06T01:31:50;9.50;99.90
25536;DHT22;13431;51.352;6.412;2022-07-06T01:34:19;9.50;99.90
25536;DHT22;13431;51.352;6.412;2022-07-06T01:36:46;9.50;99.90
25536;DHT22;13431;51.352;6.412;2022-07-06T01:39:14;9.60;99.90
25536;DHT22;13431;51.352;6.412;2022-07-06T01:41:42;9.60;99.90
25536;DHT22;13431;51.352;6.412;2022-07-06T01:44:09;9.70;99.90
25536;DHT22;13431;51.352;6.412;2022-07-06T01:46:37;9.60;99.90
25536;DHT22;13431;51.352;6.412;2022-07-06T01:49:07;9.60;99.90
25536;DHT22;13431;51.352;6.412;2022-07-06T01:51:35;9.60;99.90
25536;DHT22;13431;51.352;6.412;2022-07-06T01:54:02;9.60;99.90
25536;DHT22;13431;51.352;6.412;2022-07-06T01:56:30;9.60;99.90
25536;DHT22;13431;51.352;6.412;2022-07-06T01:59:02;9.50;99.90
25536;DHT22;13431;51.352;6.412;2022-07-06T02:01:30;9.50;99.90
25536;DHT22;13431;51.352;6.412;2022-07-06T02:03:58;9.40;99.90
25536;DHT22;13431;51.352;6.412;2022-07-06T02:06:27;9.40;99.90
25536;DHT22;13431;51.352;6.412;2022-07-06T02:08:54;9.30;99.90
25536;DHT22;13431;51.352;6.412;2022-07-06T02:11:21;9.30;99.90
25536;DHT22;13431;51.352;6.412;2022-07-06T02:13:49;9.30;99.90
25536;DHT22;13431;51.352;6.412;2022-07-06T02:16:16;9.20;99.90
25536;DHT22;13431;51.352;6.412;2022-07-06T02:18:44;9.20;99.90
25536;DHT22;13431;51.352;6.412;2022-07-06T02:21:11;9.20;99.90
25536;DHT22;13431;51.352;6.412;2022-07-06T02:23:39;9.20;99.90
25536;DHT22;13431;51.352;6.412;2022-07-06T02:26:07;9.10;99.90
25536;DHT22;13431;51.352;6.412;2022-07-06T02:28:35;9.10;99.90
25536;DHT22;13431;51.352;6.412;2022-07-06T02:31:03;9.30;99.90
25536;DHT22;13431;51.352;6.412;2022-07-06T02:33:31;9.20;99.90
25536;DHT22;13431;51.352;6.412;2022-07-06T02:35:59;9.30;99.90
25536;DHT22;13431;51.352;6.412;2022-07-06T02:38:27;9.20;99.90
25536;DHT22;13431;51.352;6.412;2022-07-06T02:40:56;9.20;99.90
25536;DHT22;13431;51.352;6.412;2022-07-06T02:43:23;9.10;99.90
25536;DHT22;13431;51.352;6.412;2022-07-06T02:45:51;9.10;99.90
25536;DHT22;13431;51.352;6.412;2022-07-06T02:48:20;9.00;99.90
25536;DHT22;13431;51.352;6.412;2022-07-06T02:50:51;9.10;99.90
25536;DHT22;13431;51.352;6.412;2022-07-06T02:53:18;9.10;99.90
25536;DHT22;13431;51.352;6.412;2022-07-06T02:55:49;9.10;99.90
25536;DHT22;13431;51.352;6.412;2022-07-06T02:58:16;9.20;99.90
25536;DHT22;13431;51.352;6.412;2022-07-06T03:00:44;9.10;99.90
25536;DHT22;13431;51.352;6.412;2022-07-06T03:03:11;9.10;99.90
25536;DHT22;13431;51.352;6.412;2022-07-06T03:05:39;9.20;99.90
25536;DHT22;13431;51.352;6.412;2022-07-06T03:08:07;9.20;99.90
25536;DHT22;13431;51.352;6.412;2022-07-06T03:10:35;9.10;99.90
25536;DHT22;13431;51.352;6.412;2022-07-06T03:13:03;9.10;99.90
25536;DHT22;13431;51.352;6.412;2022-07-06T03:15:31;9.10;99.90
25536;DHT22;13431;51.352;6.412;2022-07-06T03:17:58;9.10;99.90
25536;DHT22;13431;51.352;6.412;2022-07-06T03:20:26;9.20;99.90
25536;DHT22;13431;51.352;6.412;2022-07-06T03:22:54;9.20;99.90
25536;DHT22;13431;51.352;6.412;2022-07-06T03:25:23;9.20;99.90
25536;DHT22;13431;51.352;6.412;2022-07-06T03:27:50;9.20;99.90
25536;DHT22;13431;51.352;6.412;2022-07-06T03:30:19;9.20;99.90
25536;DHT22;13431;51.352;6.412;2022-07-06T03:32:52;9.40;99.90
25536;DHT22;13431;51.352;6.412;2022-07-06T03:35:20;9.50;99.90
25536;DHT22;13431;51.352;6.412;2022-07-06T03:37:51;9.50;99.90
25536;DHT22;13431;51.352;6.412;2022-07-06T03:40:21;9.60;99.90
25536;DHT22;13431;51.352;6.412;2022-07-06T03:42:50;9.60;99.90
25536;DHT22;13431;51.352;6.412;2022-07-06T03:45:19;9.60;99.90
25536;DHT22;13431;51.352;6.412;2022-07-06T03:47:46;9.50;99.90
25536;DHT22;13431;51.352;6.412;2022-07-06T03:50:14;9.50;99.90
25536;DHT22;13431;51.352;6.412;2022-07-06T03:52:42;9.50;99.90
25536;DHT22;13431;51.352;6.412;2022-07-06T03:55:11;9.50;99.90
25536;DHT22;13431;51.352;6.412;2022-07-06T03:57:42;9.50;99.90
25536;DHT22;13431;51.352;6.412;2022-07-06T04:00:14;9.50;99.90
25536;DHT22;13431;51.352;6.412;2022-07-06T04:02:45;9.50;99.90
25536;DHT22;13431;51.352;6.412;2022-07-06T04:05:19;9.50;99.90
25536;DHT22;13431;51.352;6.412;2022-07-06T04:07:52;9.60;99.90
25536;DHT22;13431;51.352;6.412;2022-07-06T04:10:22;9.60;99.90
25536;DHT22;13431;51.352;6.412;2022-07-06T04:12:50;9.50;99.90
25536;DHT22;13431;51.352;6.412;2022-07-06T04:15:18;9.50;99.90
25536;DHT22;13431;51.352;6.412;2022-07-06T04:17:46;9.50;99.90
25536;DHT22;13431;51.352;6.412;2022-07-06T04:20:24;9.50;99.90
25536;DHT22;13431;51.352;6.412;2022-07-06T04:22:53;9.70;99.90
25536;DHT22;13431;51.352;6.412;2022-07-06T04:25:24;9.80;99.90
25536;DHT22;13431;51.352;6.412;2022-07-06T04:27:53;10.00;99.90
25536;DHT22;13431;51.352;6.412;2022-07-06T04:30:21;10.10;99.90
25536;DHT22;13431;51.352;6.412;2022-07-06T04:32:48;10.40;99.90
25536;DHT22;13431;51.352;6.412;2022-07-06T04:35:16;10.70;99.90
25536;DHT22;13431;51.352;6.412;2022-07-06T04:37:46;11.50;99.90
25536;DHT22;13431;51.352;6.412;2022-07-06T04:40:16;11.60;99.90
25536;DHT22;13431;51.352;6.412;2022-07-06T04:42:47;11.60;99.90
25536;DHT22;13431;51.352;6.412;2022-07-06T04:45:15;11.90;99.90
25536;DHT22;13431;51.352;6.412;2022-07-06T04:47:42;12.10;99.90
25536;DHT22;13431;51.352;6.412;2022-07-06T04:50:12;13.70;99.90
25536;DHT22;13431;51.352;6.412;2022-07-06T04:52:41;15.50;99.90
25536;DHT22;13431;51.352;6.412;2022-07-06T04:55:09;17.30;99.90
25536;DHT22;13431;51.352;6.412;2022-07-06T04:57:37;17.90;99.90
25536;DHT22;13431;51.352;6.412;2022-07-06T05:00:06;17.20;99.90
25536;DHT22;13431;51.352;6.412;2022-07-06T05:02:33;16.50;99.90
25536;DHT22;13431;51.352;6.412;2022-07-06T05:05:01;15.80;99.90
25536;DHT22;13431;51.352;6.412;2022-07-06T05:07:29;15.30;99.90
25536;DHT22;13431;51.352;6.412;2022-07-06T05:09:58;15.00;99.90
25536;DHT22;13431;51.352;6.412;2022-07-06T05:12:25;15.10;99.90
25536;DHT22;13431;51.352;6.412;2022-07-06T05:14:54;15.80;99.90
25536;DHT22;13431;51.352;6.412;2022-07-06T05:17:21;17.40;99.90
25536;DHT22;13431;51.352;6.412;2022-07-06T05:19:57;19.30;99.90
25536;DHT22;13431;51.352;6.412;2022-07-06T05:22:25;20.70;99.90
25536;DHT22;13431;51.352;6.412;2022-07-06T05:24:53;21.40;99.90
25536;DHT22;13431;51.352;6.412;2022-07-06T05:27:21;22.30;99.90
25536;DHT22;13431;51.352;6.412;2022-07-06T05:29:49;23.10;99.90
25536;DHT22;13431;51.352;6.412;2022-07-06T05:32:17;24.10;99.90
25536;DHT22;13431;51.352;6.412;2022-07-06T05:34:45;24.90;99.90
25536;DHT22;13431;51.352;6.412;2022-07-06T05:37:13;25.10;99.90
25536;DHT22;13431;51.352;6.412;2022-07-06T05:39:41;25.80;99.90
25536;DHT22;13431;51.352;6.412;2022-07-06T05:42:11;25.80;99.90
25536;DHT22;13431;51.352;6.412;2022-07-06T05:44:38;25.90;99.90
25536;DHT22;13431;51.352;6.412;2022-07-06T05:47:06;25.80;99.90
25536;DHT22;13431;51.352;6.412;2022-07-06T05:49:52;25.90;99.90
25536;DHT22;13431;51.352;6.412;2022-07-06T05:52:50;25.90;99.60
25536;DHT22;13431;51.352;6.412;2022-07-06T05:55:22;26.40;98.70
25536;DHT22;13431;51.352;6.412;2022-07-06T05:57:50;26.20;98.20
25536;DHT22;13431;51.352;6.412;2022-07-06T06:00:18;25.20;99.60
25536;DHT22;13431;51.352;6.412;2022-07-06T06:02:51;23.80;99.90
25536;DHT22;13431;51.352;6.412;2022-07-06T06:05:20;23.10;99.90
25536;DHT22;13431;51.352;6.412;2022-07-06T06:07:55;22.80;99.90
25536;DHT22;13431;51.352;6.412;2022-07-06T06:10:25;22.60;99.90
25536;DHT22;13431;51.352;6.412;2022-07-06T06:12:56;23.80;99.90
25536;DHT22;13431;51.352;6.412;2022-07-06T06:15:24;24.10;99.90
25536;DHT22;13431;51.352;6.412;2022-07-06T06:17:51;24.40;99.90
25536;DHT22;13431;51.352;6.412;2022-07-06T06:20:19;23.70;99.90
25536;DHT22;13431;51.352;6.412;2022-07-06T06:22:54;23.00;99.90
25536;DHT22;13431;51.352;6.412;2022-07-06T06:25:38;22.40;99.90
25536;DHT22;13431;51.352;6.412;2022-07-06T06:28:08;21.90;99.90
25536;DHT22;13431;51.352;6.412;2022-07-06T06:30:37;21.80;99.90
25536;DHT22;13431;51.352;6.412;2022-07-06T06:33:10;21.40;99.90
25536;DHT22;13431;51.352;6.412;2022-07-06T06:35:49;21.30;99.90
25536;DHT22;13431;51.352;6.412;2022-07-06T06:38:18;22.20;99.90
25536;DHT22;13431;51.352;6.412;2022-07-06T06:40:46;22.30;99.90
25536;DHT22;13431;51.352;6.412;2022-07-06T06:43:14;22.10;99.90
25536;DHT22;13431;51.352;6.412;2022-07-06T06:45:50;21.30;99.90
25536;DHT22;13431;51.352;6.412;2022-07-06T06:48:18;20.60;99.90
25536;DHT22;13431;51.352;6.412;2022-07-06T06:50:46;21.00;99.90
25536;DHT22;13431;51.352;6.412;2022-07-06T06:53:13;23.90;99.90
25536;DHT22;13431;51.352;6.412;2022-07-06T06:55:41;27.20;99.00
25536;DHT22;13431;51.352;6.412;2022-07-06T06:58:08;26.70;97.60
25536;DHT22;13431;51.352;6.412;2022-07-06T07:00:35;25.30;99.30
25536;DHT22;13431;51.352;6.412;2022-07-06T07:03:03;25.40;99.20
25536;DHT22;13431;51.352;6.412;2022-07-06T07:05:30;26.70;98.30
25536;DHT22;13431;51.352;6.412;2022-07-06T07:07:58;28.20;96.20
25536;DHT22;13431;51.352;6.412;2022-07-06T07:10:31;28.70;95.20
25536;DHT22;13431;51.352;6.412;2022-07-06T07:12:59;29.00;94.20
25536;DHT22;13431;51.352;6.412;2022-07-06T07:15:27;29.60;93.10
25536;DHT22;13431;51.352;6.412;2022-07-06T07:17:54;29.50;92.50
25536;DHT22;13431;51.352;6.412;2022-07-06T07:20:22;30.10;90.90
25536;DHT22;13431;51.352;6.412;2022-07-06T07:22:50;29.90;90.20
25536;DHT22;13431;51.352;6.412;2022-07-06T07:25:17;29.20;91.00
25536;DHT22;13431;51.352;6.412;2022-07-06T07:27:45;28.00;92.50
25536;DHT22;13431;51.352;6.412;2022-07-06T07:30:12;26.60;93.30
25536;DHT22;13431;51.352;6.412;2022-07-06T07:32:40;26.20;93.80
25536;DHT22;13431;51.352;6.412;2022-07-06T07:35:08;27.20;93.30
25536;DHT22;13431;51.352;6.412;2022-07-06T07:37:36;26.70;94.00
25536;DHT22;13431;51.352;6.412;2022-07-06T07:40:04;25.60;94.50
25536;DHT22;13431;51.352;6.412;2022-07-06T07:42:32;24.20;96.10
25536;DHT22;13431;51.352;6.412;2022-07-06T07:45:00;22.90;97.90
25536;DHT22;13431;51.352;6.412;2022-07-06T07:47:27;22.30;99.20
25536;DHT22;13431;51.352;6.412;2022-07-06T07:49:55;21.60;99.90
25536;DHT22;13431;51.352;6.412;2022-07-06T07:52:22;21.40;99.90
25536;DHT22;13431;51.352;6.412;2022-07-06T07:54:50;21.00;99.90
25536;DHT22;13431;51.352;6.412;2022-07-06T07:57:37;20.40;99.90
25536;DHT22;13431;51.352;6.412;2022-07-06T08:00:05;20.40;99.90
25536;DHT22;13431;51.352;6.412;2022-07-06T08:02:37;20.40;99.90
25536;DHT22;13431;51.352;6.412;2022-07-06T08:05:05;20.60;99.90
25536;DHT22;13431;51.352;6.412;2022-07-06T08:07:33;20.90;99.90
25536;DHT22;13431;51.352;6.412;2022-07-06T08:10:00;21.50;99.90
25536;DHT22;13431;51.352;6.412;2022-07-06T08:12:28;22.40;99.90
25536;DHT22;13431;51.352;6.412;2022-07-06T08:14:55;23.00;99.90
25536;DHT22;13431;51.352;6.412;2022-07-06T08:17:23;24.10;99.60
25536;DHT22;13431;51.352;6.412;2022-07-06T08:19:50;25.60;97.30
25536;DHT22;13431;51.352;6.412;2022-07-06T08:22:18;28.20;92.60
25536;DHT22;13431;51.352;6.412;2022-07-06T08:24:45;29.80;90.20
25536;DHT22;13431;51.352;6.412;2022-07-06T08:27:13;27.10;92.10
25536;DHT22;13431;51.352;6.412;2022-07-06T08:29:40;25.90;94.70
25536;DHT22;13431;51.352;6.412;2022-07-06T08:32:08;29.10;90.70
25536;DHT22;13431;51.352;6.412;2022-07-06T08:34:47;28.10;90.50
25536;DHT22;13431;51.352;6.412;2022-07-06T08:37:14;26.20;93.30
25536;DHT22;13431;51.352;6.412;2022-07-06T08:39:42;25.50;93.60
25536;DHT22;13431;51.352;6.412;2022-07-06T08:42:09;26.00;93.30
25536;DHT22;13431;51.352;6.412;2022-07-06T08:44:38;27.10;92.10
25536;DHT22;13431;51.352;6.412;2022-07-06T08:47:06;26.10;92.60
25536;DHT22;13431;51.352;6.412;2022-07-06T08:49:38;26.40;92.80
25536;DHT22;13431;51.352;6.412;2022-07-06T08:52:07;29.70;90.60
25536;DHT22;13431;51.352;6.412;2022-07-06T08:54:35;32.60;80.70
25536;DHT22;13431;51.352;6.412;2022-07-06T08:57:03;32.90;75.70
25536;DHT22;13431;51.352;6.412;2022-07-06T08:59:31;34.70;73.00
25536;DHT22;13431;51.352;6.412;2022-07-06T09:02:00;33.40;73.40
25536;DHT22;13431;51.352;6.412;2022-07-06T09:04:28;30.40;74.30
25536;DHT22;13431;51.352;6.412;2022-07-06T09:06:56;27.50;79.70
25536;DHT22;13431;51.352;6.412;2022-07-06T09:09:24;26.10;83.40
25536;DHT22;13431;51.352;6.412;2022-07-06T09:11:52;24.70;87.20
25536;DHT22;13431;51.352;6.412;2022-07-06T09:14:19;24.40;90.60
25536;DHT22;13431;51.352;6.412;2022-07-06T09:16:51;24.00;91.50
25536;DHT22;13431;51.352;6.412;2022-07-06T09:19:19;23.40;92.70
25536;DHT22;13431;51.352;6.412;2022-07-06T09:21:48;27.30;89.80
25536;DHT22;13431;51.352;6.412;2022-07-06T09:24:15;30.20;83.70
25536;DHT22;13431;51.352;6.412;2022-07-06T09:26:43;29.80;83.20
25536;DHT22;13431;51.352;6.412;2022-07-06T09:29:12;30.00;79.30
25536;DHT22;13431;51.352;6.412;2022-07-06T09:31:40;30.70;76.60
25536;DHT22;13431;51.352;6.412;2022-07-06T09:34:08;32.80;72.60
25536;DHT22;13431;51.352;6.412;2022-07-06T09:36:44;33.40;68.60
25536;DHT22;13431;51.352;6.412;2022-07-06T09:39:28;34.40;67.00
25536;DHT22;13431;51.352;6.412;2022-07-06T09:41:58;35.80;62.80
25536;DHT22;13431;51.352;6.412;2022-07-06T09:44:30;34.50;62.90
25536;DHT22;13431;51.352;6.412;2022-07-06T09:47:00;33.50;62.30
25536;DHT22;13431;51.352;6.412;2022-07-06T09:49:29;31.60;63.00
25536;DHT22;13431;51.352;6.412;2022-07-06T09:51:58;31.30;63.30
25536;DHT22;13431;51.352;6.412;2022-07-06T09:54:26;32.80;62.60
25536;DHT22;13431;51.352;6.412;2022-07-06T09:56:55;32.30;60.80
25536;DHT22;13431;51.352;6.412;2022-07-06T09:59:25;29.60;67.70
25536;DHT22;13431;51.352;6.412;2022-07-06T10:02:05;28.00;71.60
25536;DHT22;13431;51.352;6.412;2022-07-06T10:04:33;26.90;76.00
25536;DHT22;13431;51.352;6.412;2022-07-06T10:07:01;27.10;73.70
25536;DHT22;13431;51.352;6.412;2022-07-06T10:09:29;28.20;73.40
25536;DHT22;13431;51.352;6.412;2022-07-06T10:12:00;28.60;74.10
25536;DHT22;13431;51.352;6.412;2022-07-06T10:14:33;30.80;67.90
25536;DHT22;13431;51.352;6.412;2022-07-06T10:17:02;30.70;68.20
25536;DHT22;13431;51.352;6.412;2022-07-06T10:19:32;30.80;66.20
25536;DHT22;13431;51.352;6.412;2022-07-06T10:22:02;32.60;62.50
25536;DHT22;13431;51.352;6.412;2022-07-06T10:24:31;33.70;62.30
25536;DHT22;13431;51.352;6.412;2022-07-06T10:27:02;34.50;63.20
25536;DHT22;13431;51.352;6.412;2022-07-06T10:29:30;34.50;58.80
25536;DHT22;13431;51.352;6.412;2022-07-06T10:31:59;33.70;59.20
25536;DHT22;13431;51.352;6.412;2022-07-06T10:34:27;33.50;60.80
25536;DHT22;13431;51.352;6.412;2022-07-06T10:36:55;31.80;61.90
25536;DHT22;13431;51.352;6.412;2022-07-06T10:39:36;31.90;59.10
25536;DHT22;13431;51.352;6.412;2022-07-06T10:42:43;31.60;59.60
25536;DHT22;13431;51.352;6.412;2022-07-06T10:45:13;29.80;61.70
25536;DHT22;13431;51.352;6.412;2022-07-06T10:47:42;28.40;64.20
25536;DHT22;13431;51.352;6.412;2022-07-06T10:50:11;27.50;67.30
25536;DHT22;13431;51.352;6.412;2022-07-06T10:52:51;27.70;69.10
25536;DHT22;13431;51.352;6.412;2022-07-06T10:55:40;27.90;73.60
25536;DHT22;13431;51.352;6.412;2022-07-06T10:58:07;27.80;69.10
25536;DHT22;13431;51.352;6.412;2022-07-06T11:00:55;26.90;72.70
25536;DHT22;13431;51.352;6.412;2022-07-06T11:08:47;25.40;76.10
25536;DHT22;13431;51.352;6.412;2022-07-06T11:11:16;25.30;76.60
25536;DHT22;13431;51.352;6.412;2022-07-06T11:16:25;25.10;77.20
25536;DHT22;13431;51.352;6.412;2022-07-06T11:19:29;25.30;74.50
25536;DHT22;13431;51.352;6.412;2022-07-06T11:22:04;25.70;75.10
25536;DHT22;13431;51.352;6.412;2022-07-06T11:24:35;26.00;75.90
25536;DHT22;13431;51.352;6.412;2022-07-06T11:27:04;26.20;75.10
25536;DHT22;13431;51.352;6.412;2022-07-06T11:29:34;26.00;75.70
25536;DHT22;13431;51.352;6.412;2022-07-06T11:32:06;26.20;75.30
25536;DHT22;13431;51.352;6.412;2022-07-06T11:34:41;26.30;74.60
25536;DHT22;13431;51.352;6.412;2022-07-06T11:37:14;25.80;76.50
25536;DHT22;13431;51.352;6.412;2022-07-06T11:39:42;25.60;77.50
25536;DHT22;13431;51.352;6.412;2022-07-06T11:42:12;25.60;77.10
25536;DHT22;13431;51.352;6.412;2022-07-06T11:44:41;25.40;76.40
25536;DHT22;13431;51.352;6.412;2022-07-06T11:47:10;24.40;76.30
25536;DHT22;13431;51.352;6.412;2022-07-06T11:49:39;24.20;77.00
25536;DHT22;13431;51.352;6.412;2022-07-06T11:52:12;24.10;78.80
25536;DHT22;13431;51.352;6.412;2022-07-06T11:54:41;24.00;81.00
25536;DHT22;13431;51.352;6.412;2022-07-06T11:57:10;23.90;80.40
25536;DHT22;13431;51.352;6.412;2022-07-06T11:59:40;24.10;80.50
25536;DHT22;13431;51.352;6.412;2022-07-06T12:02:09;24.20;79.50
25536;DHT22;13431;51.352;6.412;2022-07-06T12:04:42;24.50;78.60
25536;DHT22;13431;51.352;6.412;2022-07-06T12:07:12;24.60;76.80
25536;DHT22;13431;51.352;6.412;2022-07-06T12:09:45;24.80;77.50
25536;DHT22;13431;51.352;6.412;2022-07-06T12:12:13;25.00;76.20
25536;DHT22;13431;51.352;6.412;2022-07-06T12:14:42;24.70;77.60
25536;DHT22;13431;51.352;6.412;2022-07-06T12:17:11;24.80;79.60
25536;DHT22;13431;51.352;6.412;2022-07-06T12:19:40;24.70;80.70
25536;DHT22;13431;51.352;6.412;2022-07-06T12:22:08;24.40;79.10
25536;DHT22;13431;51.352;6.412;2022-07-06T12:24:37;24.50;81.80
25536;DHT22;13431;51.352;6.412;2022-07-06T12:27:18;24.70;80.40
25536;DHT22;13431;51.352;6.412;2022-07-06T12:29:47;24.70;78.70
25536;DHT22;13431;51.352;6.412;2022-07-06T12:32:20;24.30;78.40
25536;DHT22;13431;51.352;6.412;2022-07-06T12:35:09;24.30;82.10
25536;DHT22;13431;51.352;6.412;2022-07-06T12:37:37;24.20;80.20
25536;DHT22;13431;51.352;6.412;2022-07-06T12:40:14;23.90;80.80
25536;DHT22;13431;51.352;6.412;2022-07-06T12:42:48;23.80;82.80
25536;DHT22;13431;51.352;6.412;2022-07-06T12:45:16;23.90;80.60
25536;DHT22;13431;51.352;6.412;2022-07-06T12:48:03;24.20;83.00
25536;DHT22;13431;51.352;6.412;2022-07-06T12:50:36;24.30;80.00
25536;DHT22;13431;51.352;6.412;2022-07-06T12:53:06;23.70;80.00
25536;DHT22;13431;51.352;6.412;2022-07-06T12:56:08;23.50;80.80
25536;DHT22;13431;51.352;6.412;2022-07-06T12:58:36;23.60;81.50
25536;DHT22;13431;51.352;6.412;2022-07-06T13:01:03;23.80;83.60
25536;DHT22;13431;51.352;6.412;2022-07-06T13:03:40;24.10;81.50
25536;DHT22;13431;51.352;6.412;2022-07-06T13:06:08;24.30;80.90
25536;DHT22;13431;51.352;6.412;2022-07-06T13:08:36;24.20;82.20
25536;DHT22;13431;51.352;6.412;2022-07-06T13:11:03;23.90;83.30
25536;DHT22;13431;51.352;6.412;2022-07-06T13:13:31;23.80;81.80
25536;DHT22;13431;51.352;6.412;2022-07-06T13:15:58;23.50;80.80
25536;DHT22;13431;51.352;6.412;2022-07-06T13:18:26;23.40;83.80
25536;DHT22;13431;51.352;6.412;2022-07-06T13:20:53;23.70;82.70
25536;DHT22;13431;51.352;6.412;2022-07-06T13:23:21;23.90;81.40
25536;DHT22;13431;51.352;6.412;2022-07-06T13:25:49;23.90;79.40
25536;DHT22;13431;51.352;6.412;2022-07-06T13:28:16;23.90;82.50
25536;DHT22;13431;51.352;6.412;2022-07-06T13:30:43;24.20;80.20
25536;DHT22;13431;51.352;6.412;2022-07-06T13:33:11;24.10;81.60
25536;DHT22;13431;51.352;6.412;2022-07-06T13:35:38;24.10;83.60
25536;DHT22;13431;51.352;6.412;2022-07-06T13:38:05;23.80;81.30
25536;DHT22;13431;51.352;6.412;2022-07-06T13:40:41;23.70;81.30
25536;DHT22;13431;51.352;6.412;2022-07-06T13:43:08;23.20;81.40
25536;DHT22;13431;51.352;6.412;2022-07-06T13:45:35;23.10;83.50
25536;DHT22;13431;51.352;6.412;2022-07-06T13:48:03;22.90;83.30
25536;DHT22;13431;51.352;6.412;2022-07-06T13:50:31;22.80;82.20
25536;DHT22;13431;51.352;6.412;2022-07-06T13:52:59;23.30;85.60
25536;DHT22;13431;51.352;6.412;2022-07-06T13:55:26;23.60;81.10
25536;DHT22;13431;51.352;6.412;2022-07-06T13:57:54;23.70;82.60
25536;DHT22;13431;51.352;6.412;2022-07-06T14:00:21;23.70;81.70
25536;DHT22;13431;51.352;6.412;2022-07-06T14:02:49;23.90;82.30
25536;DHT22;13431;51.352;6.412;2022-07-06T14:05:16;23.80;83.00
25536;DHT22;13431;51.352;6.412;2022-07-06T14:07:44;23.80;82.20
25536;DHT22;13431;51.352;6.412;2022-07-06T14:10:12;23.70;82.70
25536;DHT22;13431;51.352;6.412;2022-07-06T14:12:39;23.40;83.90
25536;DHT22;13431;51.352;6.412;2022-07-06T14:15:07;23.10;85.10
25536;DHT22;13431;51.352;6.412;2022-07-06T14:17:35;23.00;85.60
25536;DHT22;13431;51.352;6.412;2022-07-06T14:20:02;23.00;86.00
25536;DHT22;13431;51.352;6.412;2022-07-06T14:22:29;22.90;87.60
25536;DHT22;13431;51.352;6.412;2022-07-06T14:24:57;22.70;86.60
25536;DHT22;13431;51.352;6.412;2022-07-06T14:27:24;22.60;86.80
25536;DHT22;13431;51.352;6.412;2022-07-06T14:29:52;22.80;86.20
25536;DHT22;13431;51.352;6.412;2022-07-06T14:32:19;22.60;85.30
25536;DHT22;13431;51.352;6.412;2022-07-06T14:34:47;22.50;85.00
25536;DHT22;13431;51.352;6.412;2022-07-06T14:37:14;22.40;85.30
25536;DHT22;13431;51.352;6.412;2022-07-06T14:39:46;22.30;88.50
25536;DHT22;13431;51.352;6.412;2022-07-06T14:42:15;22.30;87.40
25536;DHT22;13431;51.352;6.412;2022-07-06T14:44:43;22.30;88.50
25536;DHT22;13431;51.352;6.412;2022-07-06T14:47:10;22.00;89.40
25536;DHT22;13431;51.352;6.412;2022-07-06T14:49:37;22.00;90.20
25536;DHT22;13431;51.352;6.412;2022-07-06T14:52:05;22.50;86.90
25536;DHT22;13431;51.352;6.412;2022-07-06T14:54:32;22.80;86.50
25536;DHT22;13431;51.352;6.412;2022-07-06T14:56:59;23.30;89.50
25536;DHT22;13431;51.352;6.412;2022-07-06T14:59:27;23.70;86.80
25536;DHT22;13431;51.352;6.412;2022-07-06T15:01:55;23.70;86.40
25536;DHT22;13431;51.352;6.412;2022-07-06T15:04:22;23.30;84.20
25536;DHT22;13431;51.352;6.412;2022-07-06T15:06:50;22.90;86.20
25536;DHT22;13431;51.352;6.412;2022-07-06T15:09:22;22.80;86.60
25536;DHT22;13431;51.352;6.412;2022-07-06T15:11:49;22.80;87.60
25536;DHT22;13431;51.352;6.412;2022-07-06T15:14:16;22.70;88.30
25536;DHT22;13431;51.352;6.412;2022-07-06T15:16:45;22.50;89.60
25536;DHT22;13431;51.352;6.412;2022-07-06T15:19:12;22.10;90.10
25536;DHT22;13431;51.352;6.412;2022-07-06T15:21:40;21.90;90.40
25536;DHT22;13431;51.352;6.412;2022-07-06T15:24:08;21.90;90.60
25536;DHT22;13431;51.352;6.412;2022-07-06T15:26:35;22.00;90.30
25536;DHT22;13431;51.352;6.412;2022-07-06T15:29:03;22.00;90.90
25536;DHT22;13431;51.352;6.412;2022-07-06T15:31:30;21.90;90.80
25536;DHT22;13431;51.352;6.412;2022-07-06T15:33:58;21.80;91.00
25536;DHT22;13431;51.352;6.412;2022-07-06T15:36:26;21.80;91.40
25536;DHT22;13431;51.352;6.412;2022-07-06T15:38:53;21.90;90.30
25536;DHT22;13431;51.352;6.412;2022-07-06T15:41:21;21.90;91.00
25536;DHT22;13431;51.352;6.412;2022-07-06T15:43:48;21.80;90.30
25536;DHT22;13431;51.352;6.412;2022-07-06T15:46:23;21.60;91.50
25536;DHT22;13431;51.352;6.412;2022-07-06T15:48:51;21.70;91.40
25536;DHT22;13431;51.352;6.412;2022-07-06T15:51:18;21.70;91.10
25536;DHT22;13431;51.352;6.412;2022-07-06T15:53:46;21.70;92.00
25536;DHT22;13431;51.352;6.412;2022-07-06T15:56:14;21.90;91.50